Flight Track Log - Related Links

Times and Time Zones

All times are in EST time to prevent confusion due to time zone crossing. See the PDT4226 flight status page for this flight to view local times or setup timezone preferences in your user account.

Time Position Orientation Groundspeed Altitude Reporting Facility
EST Latitude Longitude Course Direction KTS MPH feet Rate Location/Type
Thu 01:52:00 PM 42.0626 -75.9319 180° South  Level Estimated
Thu 01:53:00 PM 42.0126 -75.9321 180° South  Level FlightAware Approximate
Thu 01:54:00 PM 41.9626 -75.9323 180° South  Level FlightAware Approximate
Thu 01:55:00 PM 41.9126 -75.9326 180° South  Level FlightAware Approximate
Thu 01:56:00 PM 41.8641 -75.9156 154° Southeast  Level Estimated
Thu 01:57:00 PM 41.8157 -75.8987 160° South  Level Estimated
Thu 01:58:00 PM 41.7661 -75.8900 173° South  Level FlightAware Approximate
Thu 01:59:00 PM 41.7178 -75.8729 159° South  Level Estimated
Thu 02:00:00 PM 41.6692 -75.8566 166° South  Level FlightAware Approximate
Thu 02:01:00 PM 41.6208 -75.8396 153° Southeast  Level Estimated
Thu 02:02:00 PM 41.5725 -75.8226 161° South  Level Estimated
Thu 02:03:00 PM 41.5251 -75.8009 161° South  Level FlightAware Approximate
Thu 02:04:00 PM 41.4778 -75.7793 161° South  Level FlightAware Approximate
Thu 02:05:00 PM 41.4305 -75.7578 161° South  Level FlightAware Approximate
Thu 02:06:00 PM 41.3820 -75.7413 162° South  Level Estimated
Thu 02:07:00 PM 41.3347 -75.7196 161° South  Level FlightAware Approximate
Thu 02:08:00 PM 41.2874 -75.6979 161° South  Level FlightAware Approximate
Thu 02:09:00 PM 41.2401 -75.6762 161° South  Level FlightAware Approximate
Thu 02:10:00 PM 41.1928 -75.6545 161° South  Level FlightAware Approximate
Thu 02:11:00 PM 41.1455 -75.6329 161° South  Level FlightAware Approximate
Thu 02:12:00 PM 41.0968 -75.6177 159° South  Level Estimated
Thu 02:13:00 PM 41.0481 -75.6024 163° South  Level Estimated
Thu 02:14:00 PM 41.0009 -75.5806 161° South  Level FlightAware Approximate
Thu 02:15:00 PM 40.9537 -75.5588 161° South  Level FlightAware Approximate
Thu 02:16:00 PM 40.9064 -75.5370 161° South  Level FlightAware Approximate
Thu 02:16:18 PM 40.6667 -75.4667 180° South 204 235 5,200  Level Philadelphia TRACON
Thu 02:17:00 PM 40.8592 -75.5153 161° South  Level FlightAware Approximate
Thu 02:17:31 PM 40.6000 -75.4833 191° South 186 214 5,000  Level Philadelphia TRACON
Thu 02:18:00 PM 40.8102 -75.5015 190° South  Level Estimated
Thu 02:18:31 PM 40.5500 -75.5000 194° South 190 219 5,000  Level Philadelphia TRACON
Thu 02:19:00 PM 40.7602 -75.5013 180° South  Level FlightAware Approximate
Thu 02:19:31 PM 40.5000 -75.4667 153° Southeast 214 246 5,000  Level Philadelphia TRACON
Thu 02:20:00 PM 40.7102 -75.5010 180° South  Level FlightAware Approximate
Thu 02:20:30 PM 40.4500 -75.4167 143° Southeast 208 239 4,900  Level Philadelphia TRACON
Thu 02:21:00 PM 40.6602 -75.5008 180° South  Level FlightAware Approximate
Thu 02:21:31 PM 40.4167 -75.3833 143° Southeast 204 235 4,900  Level Philadelphia TRACON
Thu 02:22:36 PM 40.3500 -75.3333 150° Southeast 206 237 4,600 -480 Descending Philadelphia TRACON
Thu 02:23:36 PM 40.3000 -75.3000 153° Southeast 212 244 3,900 -333 Descending Philadelphia TRACON
Thu 02:24:42 PM 40.2500 -75.2667 153° Southeast 201 231 3,900  Level Philadelphia TRACON
Thu 02:25:36 PM 40.2000 -75.2500 166° South 194 223 3,900  Level Philadelphia TRACON
Thu 02:26:37 PM 40.1500 -75.2333 166° South 200 230 3,900  Level Philadelphia TRACON
Thu 02:27:36 PM 40.1000 -75.2000 153° Southeast 202 232 3,900  Level Philadelphia TRACON
Thu 02:28:36 PM 40.0500 -75.1833 166° South 206 237 3,900  Level Philadelphia TRACON
Thu 02:29:31 PM 40.0000 -75.1667 166° South 202 232 3,900  Level Philadelphia TRACON
Thu 02:30:31 PM 39.9333 -75.1500 169° South 205 236 3,900  Level Philadelphia TRACON
Thu 02:31:36 PM 39.8667 -75.1333 169° South 206 237 3,900  Level Philadelphia TRACON
Thu 02:32:37 PM 39.8167 -75.1333 180° South 204 235 3,900 -347 Level Philadelphia TRACON
Thu 02:33:37 PM 39.7667 -75.1000 153° Southeast 217 250 3,200 -500 Descending Philadelphia TRACON
Thu 02:34:37 PM 39.7167 -75.1167 194° South 168 193 2,900 -316 Descending Philadelphia TRACON
Thu 02:35:31 PM 39.7167 -75.1667 270° West 139 160 2,600 -526 Descending Philadelphia TRACON
Thu 02:36:31 PM 39.7333 -75.2000 303° West 168 193 1,900 -368 Descending Philadelphia TRACON
Thu 02:37:25 PM 39.7667 -75.1667 38° Northeast 154 177 1,900 -143 Level Philadelphia TRACON
Thu 02:38:37 PM 39.8167 -75.1833 346° North 145 167 1,600 -450 Descending Philadelphia TRACON
Thu 02:39:25 PM 39.8333 -75.2000 322° Northwest 127 146 1,000 -737 Descending Philadelphia TRACON
Thu 02:40:31 PM 39.8667 -75.2167 339° North 109 125 200 -727 Descending Philadelphia TRACON

Login

Don't have an account? Register now (free) for customized features, flight alerts, and more!